sensor_id;sensor_type;location;lat;lon;timestamp;P1;durP1;ratioP1;P2;durP2;ratioP2
8183;SDS011;4133;48.752;9.088;2022-12-07T00:00:55;9.93;;;7.50;;
8183;SDS011;4133;48.752;9.088;2022-12-07T00:03:21;10.10;;;7.27;;
8183;SDS011;4133;48.752;9.088;2022-12-07T00:05:47;11.67;;;8.10;;
8183;SDS011;4133;48.752;9.088;2022-12-07T00:08:13;10.37;;;7.73;;
8183;SDS011;4133;48.752;9.088;2022-12-07T00:10:39;9.63;;;7.23;;
8183;SDS011;4133;48.752;9.088;2022-12-07T00:13:05;9.40;;;7.03;;
8183;SDS011;4133;48.752;9.088;2022-12-07T00:15:32;11.97;;;7.80;;
8183;SDS011;4133;48.752;9.088;2022-12-07T00:17:59;9.33;;;7.30;;
8183;SDS011;4133;48.752;9.088;2022-12-07T00:20:25;9.63;;;7.07;;
8183;SDS011;4133;48.752;9.088;2022-12-07T00:22:51;9.83;;;7.23;;
8183;SDS011;4133;48.752;9.088;2022-12-07T00:25:17;9.73;;;7.23;;
8183;SDS011;4133;48.752;9.088;2022-12-07T00:27:43;11.50;;;7.10;;
8183;SDS011;4133;48.752;9.088;2022-12-07T00:30:09;9.00;;;7.00;;
8183;SDS011;4133;48.752;9.088;2022-12-07T00:32:35;10.87;;;7.47;;
8183;SDS011;4133;48.752;9.088;2022-12-07T00:35:01;10.17;;;7.33;;
8183;SDS011;4133;48.752;9.088;2022-12-07T00:37:27;9.07;;;6.93;;
8183;SDS011;4133;48.752;9.088;2022-12-07T00:39:53;10.03;;;7.57;;
8183;SDS011;4133;48.752;9.088;2022-12-07T00:42:19;8.33;;;6.50;;
8183;SDS011;4133;48.752;9.088;2022-12-07T00:44:45;9.90;;;7.03;;
8183;SDS011;4133;48.752;9.088;2022-12-07T00:47:11;8.67;;;7.03;;
8183;SDS011;4133;48.752;9.088;2022-12-07T00:49:37;8.17;;;6.70;;
8183;SDS011;4133;48.752;9.088;2022-12-07T00:52:03;10.43;;;7.17;;
8183;SDS011;4133;48.752;9.088;2022-12-07T00:54:29;8.57;;;6.93;;
8183;SDS011;4133;48.752;9.088;2022-12-07T00:56:55;9.70;;;6.93;;
8183;SDS011;4133;48.752;9.088;2022-12-07T00:59:21;10.00;;;6.87;;
8183;SDS011;4133;48.752;9.088;2022-12-07T01:01:47;7.83;;;6.77;;
8183;SDS011;4133;48.752;9.088;2022-12-07T01:04:13;9.10;;;7.10;;
8183;SDS011;4133;48.752;9.088;2022-12-07T01:06:39;8.80;;;6.70;;
8183;SDS011;4133;48.752;9.088;2022-12-07T01:09:05;8.87;;;6.90;;
8183;SDS011;4133;48.752;9.088;2022-12-07T01:11:31;8.13;;;6.90;;
8183;SDS011;4133;48.752;9.088;2022-12-07T01:13:57;8.50;;;7.00;;
8183;SDS011;4133;48.752;9.088;2022-12-07T01:16:24;9.97;;;6.13;;
8183;SDS011;4133;48.752;9.088;2022-12-07T01:18:51;8.57;;;6.73;;
8183;SDS011;4133;48.752;9.088;2022-12-07T01:21:19;8.73;;;6.97;;
8183;SDS011;4133;48.752;9.088;2022-12-07T01:23:48;9.43;;;6.90;;
8183;SDS011;4133;48.752;9.088;2022-12-07T01:26:15;9.47;;;7.07;;
8183;SDS011;4133;48.752;9.088;2022-12-07T01:28:41;9.90;;;6.93;;
8183;SDS011;4133;48.752;9.088;2022-12-07T01:31:11;8.57;;;6.83;;
8183;SDS011;4133;48.752;9.088;2022-12-07T01:33:40;11.07;;;7.03;;
8183;SDS011;4133;48.752;9.088;2022-12-07T01:38:38;9.63;;;7.43;;
8183;SDS011;4133;48.752;9.088;2022-12-07T01:41:04;9.00;;;7.10;;
8183;SDS011;4133;48.752;9.088;2022-12-07T01:43:31;9.60;;;7.33;;
8183;SDS011;4133;48.752;9.088;2022-12-07T01:45:57;9.83;;;7.60;;
8183;SDS011;4133;48.752;9.088;2022-12-07T01:48:34;10.73;;;7.87;;
8183;SDS011;4133;48.752;9.088;2022-12-07T01:51:04;10.07;;;7.00;;
8183;SDS011;4133;48.752;9.088;2022-12-07T01:53:30;9.57;;;7.70;;
8183;SDS011;4133;48.752;9.088;2022-12-07T01:55:57;9.60;;;7.83;;
8183;SDS011;4133;48.752;9.088;2022-12-07T01:58:24;10.10;;;7.63;;
8183;SDS011;4133;48.752;9.088;2022-12-07T02:00:50;9.60;;;7.50;;
8183;SDS011;4133;48.752;9.088;2022-12-07T02:03:36;9.63;;;7.80;;
8183;SDS011;4133;48.752;9.088;2022-12-07T02:06:04;11.10;;;7.93;;
8183;SDS011;4133;48.752;9.088;2022-12-07T02:08:31;9.63;;;7.53;;
8183;SDS011;4133;48.752;9.088;2022-12-07T02:10:57;10.93;;;8.17;;
8183;SDS011;4133;48.752;9.088;2022-12-07T02:13:24;10.93;;;7.73;;
8183;SDS011;4133;48.752;9.088;2022-12-07T02:29:00;12.40;;;8.60;;
8183;SDS011;4133;48.752;9.088;2022-12-07T02:31:32;10.33;;;7.87;;
8183;SDS011;4133;48.752;9.088;2022-12-07T02:34:05;10.93;;;7.90;;
8183;SDS011;4133;48.752;9.088;2022-12-07T02:36:36;10.43;;;7.77;;
8183;SDS011;4133;48.752;9.088;2022-12-07T02:39:12;12.60;;;8.73;;
8183;SDS011;4133;48.752;9.088;2022-12-07T02:41:43;11.93;;;8.30;;
8183;SDS011;4133;48.752;9.088;2022-12-07T02:44:10;12.13;;;8.63;;
8183;SDS011;4133;48.752;9.088;2022-12-07T02:46:40;10.00;;;8.20;;
8183;SDS011;4133;48.752;9.088;2022-12-07T02:51:58;12.10;;;8.00;;
8183;SDS011;4133;48.752;9.088;2022-12-07T02:54:24;12.27;;;8.00;;
8183;SDS011;4133;48.752;9.088;2022-12-07T02:57:00;12.90;;;8.80;;
8183;SDS011;4133;48.752;9.088;2022-12-07T03:10:10;10.87;;;8.13;;
8183;SDS011;4133;48.752;9.088;2022-12-07T03:12:46;12.20;;;8.70;;
8183;SDS011;4133;48.752;9.088;2022-12-07T03:15:27;11.73;;;8.63;;
8183;SDS011;4133;48.752;9.088;2022-12-07T03:17:55;12.40;;;8.80;;
8183;SDS011;4133;48.752;9.088;2022-12-07T03:20:22;13.00;;;9.10;;
8183;SDS011;4133;48.752;9.088;2022-12-07T03:22:50;15.57;;;9.83;;
8183;SDS011;4133;48.752;9.088;2022-12-07T03:25:16;16.13;;;10.57;;
8183;SDS011;4133;48.752;9.088;2022-12-07T03:27:49;14.63;;;10.00;;
8183;SDS011;4133;48.752;9.088;2022-12-07T03:30:20;13.13;;;9.20;;
8183;SDS011;4133;48.752;9.088;2022-12-07T03:40:20;11.77;;;8.73;;
8183;SDS011;4133;48.752;9.088;2022-12-07T03:42:47;11.03;;;8.20;;
8183;SDS011;4133;48.752;9.088;2022-12-07T03:45:14;11.43;;;8.07;;
8183;SDS011;4133;48.752;9.088;2022-12-07T03:47:43;11.70;;;8.50;;
8183;SDS011;4133;48.752;9.088;2022-12-07T03:50:14;12.20;;;8.93;;
8183;SDS011;4133;48.752;9.088;2022-12-07T03:52:43;11.77;;;8.67;;
8183;SDS011;4133;48.752;9.088;2022-12-07T03:57:39;11.33;;;8.50;;
8183;SDS011;4133;48.752;9.088;2022-12-07T04:02:59;11.00;;;8.20;;
8183;SDS011;4133;48.752;9.088;2022-12-07T04:05:25;11.23;;;8.23;;
8183;SDS011;4133;48.752;9.088;2022-12-07T04:07:52;12.87;;;8.80;;
8183;SDS011;4133;48.752;9.088;2022-12-07T04:10:18;12.17;;;8.87;;
8183;SDS011;4133;48.752;9.088;2022-12-07T04:12:44;10.60;;;8.00;;
8183;SDS011;4133;48.752;9.088;2022-12-07T04:15:10;10.43;;;7.87;;
8183;SDS011;4133;48.752;9.088;2022-12-07T04:17:37;11.20;;;8.30;;
8183;SDS011;4133;48.752;9.088;2022-12-07T04:20:04;12.83;;;8.63;;
8183;SDS011;4133;48.752;9.088;2022-12-07T04:22:30;11.17;;;7.97;;
8183;SDS011;4133;48.752;9.088;2022-12-07T04:24:56;10.00;;;7.67;;
8183;SDS011;4133;48.752;9.088;2022-12-07T04:27:22;10.87;;;7.83;;
8183;SDS011;4133;48.752;9.088;2022-12-07T04:29:48;10.13;;;8.03;;
8183;SDS011;4133;48.752;9.088;2022-12-07T04:32:14;9.60;;;7.63;;
8183;SDS011;4133;48.752;9.088;2022-12-07T04:34:40;9.67;;;7.87;;
8183;SDS011;4133;48.752;9.088;2022-12-07T04:37:06;9.53;;;7.37;;
8183;SDS011;4133;48.752;9.088;2022-12-07T04:39:32;10.27;;;7.37;;
8183;SDS011;4133;48.752;9.088;2022-12-07T04:41:59;9.03;;;7.07;;
8183;SDS011;4133;48.752;9.088;2022-12-07T04:44:25;8.53;;;6.67;;
8183;SDS011;4133;48.752;9.088;2022-12-07T04:46:51;8.73;;;6.97;;
8183;SDS011;4133;48.752;9.088;2022-12-07T04:49:17;8.43;;;6.70;;
8183;SDS011;4133;48.752;9.088;2022-12-07T04:51:44;8.83;;;6.80;;
8183;SDS011;4133;48.752;9.088;2022-12-07T04:54:10;8.77;;;6.30;;
8183;SDS011;4133;48.752;9.088;2022-12-07T04:56:37;7.90;;;6.33;;
8183;SDS011;4133;48.752;9.088;2022-12-07T04:59:03;7.57;;;6.07;;
8183;SDS011;4133;48.752;9.088;2022-12-07T05:01:38;6.67;;;4.90;;
8183;SDS011;4133;48.752;9.088;2022-12-07T05:04:04;4.93;;;3.90;;
8183;SDS011;4133;48.752;9.088;2022-12-07T05:06:31;4.87;;;3.47;;
8183;SDS011;4133;48.752;9.088;2022-12-07T05:08:57;4.73;;;3.97;;
8183;SDS011;4133;48.752;9.088;2022-12-07T05:11:29;4.77;;;4.00;;
8183;SDS011;4133;48.752;9.088;2022-12-07T05:14:15;4.97;;;4.07;;
8183;SDS011;4133;48.752;9.088;2022-12-07T05:16:41;4.03;;;3.60;;
8183;SDS011;4133;48.752;9.088;2022-12-07T05:19:08;5.20;;;4.20;;
8183;SDS011;4133;48.752;9.088;2022-12-07T05:21:34;5.33;;;4.23;;
8183;SDS011;4133;48.752;9.088;2022-12-07T05:24:01;5.33;;;3.80;;
8183;SDS011;4133;48.752;9.088;2022-12-07T05:26:27;4.10;;;3.70;;
8183;SDS011;4133;48.752;9.088;2022-12-07T05:28:53;5.27;;;4.27;;
8183;SDS011;4133;48.752;9.088;2022-12-07T05:31:19;4.60;;;3.73;;
8183;SDS011;4133;48.752;9.088;2022-12-07T05:33:46;6.27;;;4.20;;
8183;SDS011;4133;48.752;9.088;2022-12-07T05:36:12;4.67;;;3.70;;
8183;SDS011;4133;48.752;9.088;2022-12-07T05:38:38;5.17;;;4.20;;
8183;SDS011;4133;48.752;9.088;2022-12-07T05:41:04;4.77;;;4.07;;
8183;SDS011;4133;48.752;9.088;2022-12-07T05:43:31;4.90;;;4.10;;
8183;SDS011;4133;48.752;9.088;2022-12-07T05:45:57;4.23;;;3.80;;
8183;SDS011;4133;48.752;9.088;2022-12-07T05:48:23;6.53;;;4.63;;
8183;SDS011;4133;48.752;9.088;2022-12-07T05:50:50;4.23;;;3.73;;
8183;SDS011;4133;48.752;9.088;2022-12-07T05:53:16;4.00;;;3.43;;
8183;SDS011;4133;48.752;9.088;2022-12-07T05:55:42;5.03;;;4.13;;
8183;SDS011;4133;48.752;9.088;2022-12-07T05:58:08;5.40;;;4.20;;
8183;SDS011;4133;48.752;9.088;2022-12-07T06:00:56;5.77;;;4.60;;
8183;SDS011;4133;48.752;9.088;2022-12-07T06:03:22;4.97;;;4.07;;
8183;SDS011;4133;48.752;9.088;2022-12-07T06:05:48;5.87;;;4.70;;
8183;SDS011;4133;48.752;9.088;2022-12-07T06:08:14;5.53;;;4.60;;
8183;SDS011;4133;48.752;9.088;2022-12-07T06:10:41;5.87;;;4.53;;
8183;SDS011;4133;48.752;9.088;2022-12-07T06:13:07;6.03;;;4.80;;
8183;SDS011;4133;48.752;9.088;2022-12-07T06:15:35;7.03;;;4.80;;
8183;SDS011;4133;48.752;9.088;2022-12-07T06:18:02;6.50;;;4.60;;
8183;SDS011;4133;48.752;9.088;2022-12-07T06:20:28;5.90;;;4.80;;
8183;SDS011;4133;48.752;9.088;2022-12-07T06:22:54;6.83;;;4.70;;
8183;SDS011;4133;48.752;9.088;2022-12-07T06:25:20;6.00;;;5.03;;
8183;SDS011;4133;48.752;9.088;2022-12-07T06:27:46;6.53;;;5.20;;
8183;SDS011;4133;48.752;9.088;2022-12-07T06:30:12;6.63;;;4.77;;
8183;SDS011;4133;48.752;9.088;2022-12-07T06:32:38;6.10;;;4.60;;
8183;SDS011;4133;48.752;9.088;2022-12-07T06:35:04;5.97;;;4.60;;
8183;SDS011;4133;48.752;9.088;2022-12-07T06:37:30;5.57;;;4.03;;
8183;SDS011;4133;48.752;9.088;2022-12-07T06:39:56;6.03;;;4.27;;
8183;SDS011;4133;48.752;9.088;2022-12-07T06:42:22;5.33;;;4.50;;
8183;SDS011;4133;48.752;9.088;2022-12-07T06:44:48;5.37;;;4.63;;
8183;SDS011;4133;48.752;9.088;2022-12-07T06:47:14;5.33;;;4.50;;
8183;SDS011;4133;48.752;9.088;2022-12-07T06:49:40;6.87;;;5.37;;
8183;SDS011;4133;48.752;9.088;2022-12-07T06:52:06;7.47;;;5.93;;
8183;SDS011;4133;48.752;9.088;2022-12-07T06:54:33;6.73;;;5.27;;
8183;SDS011;4133;48.752;9.088;2022-12-07T06:57:01;6.33;;;5.07;;
8183;SDS011;4133;48.752;9.088;2022-12-07T06:59:27;5.37;;;4.60;;
8183;SDS011;4133;48.752;9.088;2022-12-07T07:01:57;5.03;;;4.53;;
8183;SDS011;4133;48.752;9.088;2022-12-07T07:04:24;5.27;;;4.40;;
8183;SDS011;4133;48.752;9.088;2022-12-07T07:06:53;4.57;;;4.13;;
8183;SDS011;4133;48.752;9.088;2022-12-07T07:09:19;7.03;;;4.60;;
8183;SDS011;4133;48.752;9.088;2022-12-07T07:14:52;6.10;;;3.90;;
8183;SDS011;4133;48.752;9.088;2022-12-07T07:17:21;7.23;;;4.57;;
8183;SDS011;4133;48.752;9.088;2022-12-07T07:19:47;6.67;;;4.30;;
8183;SDS011;4133;48.752;9.088;2022-12-07T07:22:16;5.17;;;4.47;;
8183;SDS011;4133;48.752;9.088;2022-12-07T07:24:42;4.97;;;4.10;;
8183;SDS011;4133;48.752;9.088;2022-12-07T07:27:08;6.27;;;4.40;;
8183;SDS011;4133;48.752;9.088;2022-12-07T07:29:34;10.37;;;4.43;;
8183;SDS011;4133;48.752;9.088;2022-12-07T07:32:00;4.67;;;4.10;;
8183;SDS011;4133;48.752;9.088;2022-12-07T07:34:26;5.70;;;4.03;;
8183;SDS011;4133;48.752;9.088;2022-12-07T07:36:52;5.23;;;4.20;;
8183;SDS011;4133;48.752;9.088;2022-12-07T07:39:18;5.87;;;4.77;;
8183;SDS011;4133;48.752;9.088;2022-12-07T07:41:44;7.67;;;4.43;;
8183;SDS011;4133;48.752;9.088;2022-12-07T07:44:10;6.67;;;5.23;;
8183;SDS011;4133;48.752;9.088;2022-12-07T07:46:36;8.43;;;5.07;;
8183;SDS011;4133;48.752;9.088;2022-12-07T07:49:02;5.50;;;4.43;;
8183;SDS011;4133;48.752;9.088;2022-12-07T07:51:28;7.10;;;4.67;;
8183;SDS011;4133;48.752;9.088;2022-12-07T07:53:57;4.83;;;3.50;;
8183;SDS011;4133;48.752;9.088;2022-12-07T07:56:23;5.27;;;4.33;;
8183;SDS011;4133;48.752;9.088;2022-12-07T07:58:51;5.77;;;4.47;;
8183;SDS011;4133;48.752;9.088;2022-12-07T08:01:17;5.43;;;4.40;;
8183;SDS011;4133;48.752;9.088;2022-12-07T08:03:44;4.83;;;4.33;;
8183;SDS011;4133;48.752;9.088;2022-12-07T08:06:10;5.13;;;4.20;;
8183;SDS011;4133;48.752;9.088;2022-12-07T08:08:36;6.93;;;4.80;;
8183;SDS011;4133;48.752;9.088;2022-12-07T08:11:07;5.33;;;4.13;;
8183;SDS011;4133;48.752;9.088;2022-12-07T08:13:33;4.87;;;4.10;;
8183;SDS011;4133;48.752;9.088;2022-12-07T08:16:03;6.45;;;5.00;;
8183;SDS011;4133;48.752;9.088;2022-12-07T08:18:29;5.43;;;4.30;;
8183;SDS011;4133;48.752;9.088;2022-12-07T08:20:59;5.60;;;4.67;;
8183;SDS011;4133;48.752;9.088;2022-12-07T08:23:26;6.83;;;4.63;;
8183;SDS011;4133;48.752;9.088;2022-12-07T08:25:52;5.37;;;4.43;;
8183;SDS011;4133;48.752;9.088;2022-12-07T08:28:18;6.83;;;5.00;;
8183;SDS011;4133;48.752;9.088;2022-12-07T08:30:44;5.68;;;4.82;;
8183;SDS011;4133;48.752;9.088;2022-12-07T08:33:10;5.67;;;4.37;;
8183;SDS011;4133;48.752;9.088;2022-12-07T08:35:36;6.33;;;4.10;;
8183;SDS011;4133;48.752;9.088;2022-12-07T08:38:02;5.03;;;4.27;;
8183;SDS011;4133;48.752;9.088;2022-12-07T08:40:28;6.03;;;4.23;;
8183;SDS011;4133;48.752;9.088;2022-12-07T08:42:55;5.13;;;3.97;;
8183;SDS011;4133;48.752;9.088;2022-12-07T08:45:21;6.03;;;4.47;;
8183;SDS011;4133;48.752;9.088;2022-12-07T08:47:49;5.13;;;4.27;;
8183;SDS011;4133;48.752;9.088;2022-12-07T08:50:16;4.77;;;4.13;;
8183;SDS011;4133;48.752;9.088;2022-12-07T08:52:42;5.87;;;4.30;;
8183;SDS011;4133;48.752;9.088;2022-12-07T08:55:11;6.53;;;4.47;;
8183;SDS011;4133;48.752;9.088;2022-12-07T08:57:38;5.93;;;4.20;;
8183;SDS011;4133;48.752;9.088;2022-12-07T09:00:04;5.10;;;3.93;;
8183;SDS011;4133;48.752;9.088;2022-12-07T09:02:31;5.67;;;4.20;;
8183;SDS011;4133;48.752;9.088;2022-12-07T09:04:57;5.67;;;4.50;;
8183;SDS011;4133;48.752;9.088;2022-12-07T09:07:23;7.50;;;4.93;;
8183;SDS011;4133;48.752;9.088;2022-12-07T09:09:50;5.43;;;4.43;;
8183;SDS011;4133;48.752;9.088;2022-12-07T09:12:18;5.97;;;4.60;;
8183;SDS011;4133;48.752;9.088;2022-12-07T09:14:44;5.87;;;4.20;;
8183;SDS011;4133;48.752;9.088;2022-12-07T09:17:12;4.30;;;3.57;;
8183;SDS011;4133;48.752;9.088;2022-12-07T09:19:38;5.80;;;4.03;;
8183;SDS011;4133;48.752;9.088;2022-12-07T09:22:06;4.80;;;3.80;;
8183;SDS011;4133;48.752;9.088;2022-12-07T09:24:32;6.63;;;4.10;;
8183;SDS011;4133;48.752;9.088;2022-12-07T09:26:58;4.37;;;3.27;;
8183;SDS011;4133;48.752;9.088;2022-12-07T09:29:24;4.47;;;3.50;;
8183;SDS011;4133;48.752;9.088;2022-12-07T09:31:53;6.00;;;3.50;;
8183;SDS011;4133;48.752;9.088;2022-12-07T09:34:19;4.87;;;3.47;;
8183;SDS011;4133;48.752;9.088;2022-12-07T09:36:45;5.90;;;3.60;;
8183;SDS011;4133;48.752;9.088;2022-12-07T09:39:11;5.97;;;3.67;;
8183;SDS011;4133;48.752;9.088;2022-12-07T09:41:38;4.70;;;3.83;;
8183;SDS011;4133;48.752;9.088;2022-12-07T09:44:12;4.60;;;3.90;;
8183;SDS011;4133;48.752;9.088;2022-12-07T09:46:40;5.37;;;3.50;;
8183;SDS011;4133;48.752;9.088;2022-12-07T09:49:09;4.27;;;3.87;;
8183;SDS011;4133;48.752;9.088;2022-12-07T09:51:37;5.33;;;3.70;;
8183;SDS011;4133;48.752;9.088;2022-12-07T09:54:03;4.83;;;3.37;;
8183;SDS011;4133;48.752;9.088;2022-12-07T09:56:29;3.27;;;2.93;;
8183;SDS011;4133;48.752;9.088;2022-12-07T09:58:58;4.07;;;3.13;;
8183;SDS011;4133;48.752;9.088;2022-12-07T10:01:27;5.43;;;3.57;;
8183;SDS011;4133;48.752;9.088;2022-12-07T10:03:55;5.00;;;2.83;;
8183;SDS011;4133;48.752;9.088;2022-12-07T10:06:24;3.63;;;2.97;;
8183;SDS011;4133;48.752;9.088;2022-12-07T10:08:50;3.93;;;3.00;;
8183;SDS011;4133;48.752;9.088;2022-12-07T10:11:29;3.30;;;3.00;;
8183;SDS011;4133;48.752;9.088;2022-12-07T10:13:55;3.30;;;3.00;;
8183;SDS011;4133;48.752;9.088;2022-12-07T10:16:39;3.43;;;3.00;;
8183;SDS011;4133;48.752;9.088;2022-12-07T10:19:18;4.33;;;3.17;;
8183;SDS011;4133;48.752;9.088;2022-12-07T10:24:26;3.80;;;3.00;;
8183;SDS011;4133;48.752;9.088;2022-12-07T10:26:52;4.07;;;3.10;;
8183;SDS011;4133;48.752;9.088;2022-12-07T10:29:20;2.90;;;2.60;;
8183;SDS011;4133;48.752;9.088;2022-12-07T10:31:49;3.90;;;2.70;;
8183;SDS011;4133;48.752;9.088;2022-12-07T10:34:21;3.10;;;2.80;;
8183;SDS011;4133;48.752;9.088;2022-12-07T10:36:49;3.53;;;2.83;;
8183;SDS011;4133;48.752;9.088;2022-12-07T10:39:19;3.70;;;3.10;;
8183;SDS011;4133;48.752;9.088;2022-12-07T10:42:02;5.57;;;3.20;;
8183;SDS011;4133;48.752;9.088;2022-12-07T10:44:29;3.90;;;3.33;;
8183;SDS011;4133;48.752;9.088;2022-12-07T10:52:31;3.57;;;3.23;;
8183;SDS011;4133;48.752;9.088;2022-12-07T10:55:11;3.87;;;3.30;;
8183;SDS011;4133;48.752;9.088;2022-12-07T10:57:44;3.50;;;3.20;;
8183;SDS011;4133;48.752;9.088;2022-12-07T11:08:00;3.93;;;2.80;;
8183;SDS011;4133;48.752;9.088;2022-12-07T11:15:59;3.47;;;2.83;;
8183;SDS011;4133;48.752;9.088;2022-12-07T11:18:29;4.30;;;2.93;;
8183;SDS011;4133;48.752;9.088;2022-12-07T11:26:14;3.53;;;2.93;;
8183;SDS011;4133;48.752;9.088;2022-12-07T11:31:18;3.83;;;2.93;;
8183;SDS011;4133;48.752;9.088;2022-12-07T11:33:57;2.73;;;2.50;;
8183;SDS011;4133;48.752;9.088;2022-12-07T11:39:02;4.10;;;2.80;;
8183;SDS011;4133;48.752;9.088;2022-12-07T11:41:29;3.57;;;2.83;;
8183;SDS011;4133;48.752;9.088;2022-12-07T11:46:44;2.73;;;2.53;;
8183;SDS011;4133;48.752;9.088;2022-12-07T11:51:38;2.97;;;2.20;;
8183;SDS011;4133;48.752;9.088;2022-12-07T11:54:09;2.30;;;2.10;;
8183;SDS011;4133;48.752;9.088;2022-12-07T11:56:37;2.40;;;1.80;;
8183;SDS011;4133;48.752;9.088;2022-12-07T12:04:13;2.03;;;1.73;;
8183;SDS011;4133;48.752;9.088;2022-12-07T12:06:43;2.97;;;2.00;;
8183;SDS011;4133;48.752;9.088;2022-12-07T12:09:20;1.87;;;1.77;;
8183;SDS011;4133;48.752;9.088;2022-12-07T12:11:56;1.60;;;1.47;;
8183;SDS011;4133;48.752;9.088;2022-12-07T12:19:41;1.70;;;1.60;;
8183;SDS011;4133;48.752;9.088;2022-12-07T12:24:40;2.63;;;2.43;;
8183;SDS011;4133;48.752;9.088;2022-12-07T12:27:08;2.90;;;2.47;;
8183;SDS011;4133;48.752;9.088;2022-12-07T12:29:37;3.67;;;3.13;;
8183;SDS011;4133;48.752;9.088;2022-12-07T12:34:40;3.43;;;3.13;;
8183;SDS011;4133;48.752;9.088;2022-12-07T12:42:49;4.10;;;3.67;;
8183;SDS011;4133;48.752;9.088;2022-12-07T12:45:25;3.70;;;3.20;;
8183;SDS011;4133;48.752;9.088;2022-12-07T12:50:19;3.87;;;3.43;;
8183;SDS011;4133;48.752;9.088;2022-12-07T12:52:48;3.83;;;2.63;;
8183;SDS011;4133;48.752;9.088;2022-12-07T12:55:17;3.07;;;2.70;;
8183;SDS011;4133;48.752;9.088;2022-12-07T12:57:45;2.70;;;2.50;;
8183;SDS011;4133;48.752;9.088;2022-12-07T13:00:16;2.93;;;2.50;;
8183;SDS011;4133;48.752;9.088;2022-12-07T13:05:19;2.40;;;2.20;;
8183;SDS011;4133;48.752;9.088;2022-12-07T13:10:21;2.40;;;2.20;;
8183;SDS011;4133;48.752;9.088;2022-12-07T13:23:23;2.57;;;2.37;;
8183;SDS011;4133;48.752;9.088;2022-12-07T13:28:38;2.47;;;2.27;;
8183;SDS011;4133;48.752;9.088;2022-12-07T13:31:11;3.60;;;2.58;;
8183;SDS011;4133;48.752;9.088;2022-12-07T13:33:38;2.17;;;2.03;;
8183;SDS011;4133;48.752;9.088;2022-12-07T13:36:04;2.63;;;1.87;;
8183;SDS011;4133;48.752;9.088;2022-12-07T13:38:36;1.90;;;1.80;;
8183;SDS011;4133;48.752;9.088;2022-12-07T13:41:16;2.43;;;2.10;;
8183;SDS011;4133;48.752;9.088;2022-12-07T13:43:48;3.00;;;2.20;;
8183;SDS011;4133;48.752;9.088;2022-12-07T13:46:14;2.83;;;2.20;;
8183;SDS011;4133;48.752;9.088;2022-12-07T13:48:48;3.00;;;2.27;;
8183;SDS011;4133;48.752;9.088;2022-12-07T13:53:51;2.63;;;2.30;;
8183;SDS011;4133;48.752;9.088;2022-12-07T13:56:18;2.40;;;1.87;;
8183;SDS011;4133;48.752;9.088;2022-12-07T13:58:44;2.13;;;1.90;;
8183;SDS011;4133;48.752;9.088;2022-12-07T14:01:10;2.40;;;2.20;;
8183;SDS011;4133;48.752;9.088;2022-12-07T14:03:36;2.40;;;2.20;;
8183;SDS011;4133;48.752;9.088;2022-12-07T14:08:38;2.10;;;1.90;;
8183;SDS011;4133;48.752;9.088;2022-12-07T14:11:18;3.10;;;2.53;;
8183;SDS011;4133;48.752;9.088;2022-12-07T14:13:50;2.90;;;2.43;;
8183;SDS011;4133;48.752;9.088;2022-12-07T14:18:43;6.70;;;2.47;;
8183;SDS011;4133;48.752;9.088;2022-12-07T14:23:36;2.90;;;2.60;;
8183;SDS011;4133;48.752;9.088;2022-12-07T14:26:07;3.33;;;2.57;;
8183;SDS011;4133;48.752;9.088;2022-12-07T14:28:34;2.83;;;2.43;;
8183;SDS011;4133;48.752;9.088;2022-12-07T14:31:01;3.77;;;2.90;;
8183;SDS011;4133;48.752;9.088;2022-12-07T14:33:27;3.13;;;2.53;;
8183;SDS011;4133;48.752;9.088;2022-12-07T14:35:53;3.07;;;2.63;;
8183;SDS011;4133;48.752;9.088;2022-12-07T14:38:21;2.90;;;2.63;;
8183;SDS011;4133;48.752;9.088;2022-12-07T14:40:47;3.73;;;3.10;;
8183;SDS011;4133;48.752;9.088;2022-12-07T14:43:17;4.17;;;3.10;;
8183;SDS011;4133;48.752;9.088;2022-12-07T14:45:43;3.23;;;2.93;;
8183;SDS011;4133;48.752;9.088;2022-12-07T14:48:10;4.30;;;3.30;;
8183;SDS011;4133;48.752;9.088;2022-12-07T14:50:38;3.67;;;3.10;;
8183;SDS011;4133;48.752;9.088;2022-12-07T14:53:17;3.67;;;3.20;;
8183;SDS011;4133;48.752;9.088;2022-12-07T14:55:44;3.63;;;3.03;;
8183;SDS011;4133;48.752;9.088;2022-12-07T14:58:13;3.80;;;3.33;;
8183;SDS011;4133;48.752;9.088;2022-12-07T15:00:40;3.97;;;3.20;;
8183;SDS011;4133;48.752;9.088;2022-12-07T15:03:06;3.17;;;2.87;;
8183;SDS011;4133;48.752;9.088;2022-12-07T15:05:32;3.80;;;3.33;;
8183;SDS011;4133;48.752;9.088;2022-12-07T15:07:58;3.90;;;3.27;;
8183;SDS011;4133;48.752;9.088;2022-12-07T15:10:25;5.60;;;3.43;;
8183;SDS011;4133;48.752;9.088;2022-12-07T15:12:57;3.73;;;3.27;;
8183;SDS011;4133;48.752;9.088;2022-12-07T15:15:41;5.80;;;3.47;;
8183;SDS011;4133;48.752;9.088;2022-12-07T15:18:07;4.53;;;3.70;;
8183;SDS011;4133;48.752;9.088;2022-12-07T15:20:33;4.37;;;3.60;;
8183;SDS011;4133;48.752;9.088;2022-12-07T15:22:59;4.70;;;3.43;;
8183;SDS011;4133;48.752;9.088;2022-12-07T15:25:25;4.10;;;3.30;;
8183;SDS011;4133;48.752;9.088;2022-12-07T15:27:51;4.03;;;3.33;;
8183;SDS011;4133;48.752;9.088;2022-12-07T15:30:17;3.83;;;3.23;;
8183;SDS011;4133;48.752;9.088;2022-12-07T15:32:43;3.70;;;3.40;;
8183;SDS011;4133;48.752;9.088;2022-12-07T15:35:09;3.93;;;3.30;;
8183;SDS011;4133;48.752;9.088;2022-12-07T15:37:35;4.93;;;3.60;;
8183;SDS011;4133;48.752;9.088;2022-12-07T15:40:01;5.23;;;3.50;;
8183;SDS011;4133;48.752;9.088;2022-12-07T15:42:28;4.00;;;3.57;;
8183;SDS011;4133;48.752;9.088;2022-12-07T15:44:53;4.63;;;3.80;;
8183;SDS011;4133;48.752;9.088;2022-12-07T15:47:29;4.77;;;4.00;;
8183;SDS011;4133;48.752;9.088;2022-12-07T15:49:55;5.30;;;4.50;;
8183;SDS011;4133;48.752;9.088;2022-12-07T15:52:21;5.00;;;4.27;;
8183;SDS011;4133;48.752;9.088;2022-12-07T15:54:47;8.53;;;4.80;;
8183;SDS011;4133;48.752;9.088;2022-12-07T15:57:14;5.70;;;4.90;;
8183;SDS011;4133;48.752;9.088;2022-12-07T15:59:40;8.30;;;5.40;;
8183;SDS011;4133;48.752;9.088;2022-12-07T16:02:07;6.73;;;4.97;;
8183;SDS011;4133;48.752;9.088;2022-12-07T16:04:35;6.40;;;5.03;;
8183;SDS011;4133;48.752;9.088;2022-12-07T16:07:01;7.27;;;5.20;;
8183;SDS011;4133;48.752;9.088;2022-12-07T16:09:27;6.13;;;4.93;;
8183;SDS011;4133;48.752;9.088;2022-12-07T16:11:53;7.20;;;5.10;;
8183;SDS011;4133;48.752;9.088;2022-12-07T16:14:19;8.23;;;5.40;;
8183;SDS011;4133;48.752;9.088;2022-12-07T16:16:48;6.97;;;5.30;;
8183;SDS011;4133;48.752;9.088;2022-12-07T16:19:15;7.00;;;4.77;;
8183;SDS011;4133;48.752;9.088;2022-12-07T16:21:41;6.70;;;4.93;;
8183;SDS011;4133;48.752;9.088;2022-12-07T16:24:08;7.47;;;5.50;;
8183;SDS011;4133;48.752;9.088;2022-12-07T16:26:35;6.43;;;4.63;;
8183;SDS011;4133;48.752;9.088;2022-12-07T16:29:01;5.63;;;4.57;;
8183;SDS011;4133;48.752;9.088;2022-12-07T16:31:28;6.17;;;4.70;;
8183;SDS011;4133;48.752;9.088;2022-12-07T16:33:55;7.20;;;5.23;;
8183;SDS011;4133;48.752;9.088;2022-12-07T16:36:21;6.47;;;4.80;;
8183;SDS011;4133;48.752;9.088;2022-12-07T16:38:49;5.87;;;4.90;;
8183;SDS011;4133;48.752;9.088;2022-12-07T16:41:15;9.03;;;5.43;;
8183;SDS011;4133;48.752;9.088;2022-12-07T16:43:41;7.73;;;5.17;;
8183;SDS011;4133;48.752;9.088;2022-12-07T16:46:07;6.70;;;5.13;;
8183;SDS011;4133;48.752;9.088;2022-12-07T16:48:37;7.73;;;5.50;;
8183;SDS011;4133;48.752;9.088;2022-12-07T16:51:04;7.00;;;5.47;;
8183;SDS011;4133;48.752;9.088;2022-12-07T16:53:32;7.63;;;5.77;;
8183;SDS011;4133;48.752;9.088;2022-12-07T16:55:58;8.13;;;6.17;;
8183;SDS011;4133;48.752;9.088;2022-12-07T16:58:24;7.97;;;5.87;;
8183;SDS011;4133;48.752;9.088;2022-12-07T17:00:50;9.50;;;6.40;;
8183;SDS011;4133;48.752;9.088;2022-12-07T17:03:16;8.83;;;6.17;;
8183;SDS011;4133;48.752;9.088;2022-12-07T17:05:43;9.63;;;6.20;;
8183;SDS011;4133;48.752;9.088;2022-12-07T17:08:09;10.57;;;6.70;;
8183;SDS011;4133;48.752;9.088;2022-12-07T17:10:37;10.43;;;6.60;;
8183;SDS011;4133;48.752;9.088;2022-12-07T17:13:04;9.33;;;6.20;;
8183;SDS011;4133;48.752;9.088;2022-12-07T17:16:01;10.90;;;6.90;;
8183;SDS011;4133;48.752;9.088;2022-12-07T17:18:28;7.13;;;5.60;;
8183;SDS011;4133;48.752;9.088;2022-12-07T17:20:54;9.87;;;6.77;;
8183;SDS011;4133;48.752;9.088;2022-12-07T17:23:21;11.70;;;6.90;;
8183;SDS011;4133;48.752;9.088;2022-12-07T17:25:47;8.97;;;7.07;;
8183;SDS011;4133;48.752;9.088;2022-12-07T17:28:13;10.80;;;7.10;;
8183;SDS011;4133;48.752;9.088;2022-12-07T17:30:39;8.30;;;5.80;;